Time;durP1;ratioP1;P1;durP2;ratioP2;P2;SDS_P1;SDS_P2;PMS_P1;PMS_P2;Temp;Humidity;BMP_temperature;BMP_pressure;BME280_temperature;BME280_humidity;BME280_pressure;Samples;Min_cycle;Max_cycle;Signal;HPM_P1;HPM_P2
2022/09/17 00:00:40;;;;;;;2.58;1.80;;;23.10;51.90;;;;;;20827725;28;20053;-58
2022/09/17 00:10:43;;;;;;;4.87;2.30;;;23.10;51.90;;;;;;20827700;28;20045;-56
2022/09/17 00:20:46;;;;;;;3.97;1.92;;;22.90;52.30;;;;;;20826797;28;20088;-54
2022/09/17 00:30:48;;;;;;;;;;;22.80;52.50;;;;;;20838841;28;20053;-55
2022/09/17 00:40:49;;;;;;;2.95;2.10;;;22.70;52.60;;;;;;20840764;28;20010;-57
2022/09/17 00:50:51;;;;;;;4.70;2.60;;;22.60;53.00;;;;;;20841076;28;20475;-54
2022/09/17 01:01:10;;;;;;;2.95;2.40;;;22.40;53.50;;;;;;20838965;28;20045;-55
2022/09/17 01:11:38;;;;;;;3.47;2.28;;;22.30;53.60;;;;;;20839239;28;20050;-56
2022/09/17 01:22:01;;;;;;;3.95;2.63;;;22.30;53.20;;;;;;20348070;28;20058;-55
2022/09/17 01:32:19;;;;;;;3.80;2.85;;;22.10;53.50;;;;;;20346599;29;20064;-55
2022/09/17 01:42:33;;;;;;;3.58;2.55;;;22.00;53.80;;;;;;20345119;28;20059;-56
2022/09/17 01:52:40;;;;;;;4.37;2.93;;;22.10;53.50;;;;;;20482558;28;20054;-55
2022/09/17 02:03:07;;;;;;;3.30;2.60;;;21.80;53.90;;;;;;20834175;28;20053;-56
2022/09/17 02:13:47;;;;;;;3.40;2.65;;;21.80;53.50;;;;;;20817151;28;20053;-56
2022/09/17 02:24:10;;;;;;;3.80;2.75;;;21.70;53.60;;;;;;20343431;29;20048;-55
2022/09/17 02:34:12;;;;;;;4.65;3.00;;;21.60;54.20;;;;;;20342262;29;20138;-56
2022/09/17 02:44:43;;;;;;;4.82;3.00;;;21.50;54.20;;;;;;20341847;29;20052;-56
2022/09/17 02:55:05;;;;;;;4.18;3.50;;;21.50;53.60;;;;;;20547707;28;20438;-55
2022/09/17 03:05:08;;;;;;;4.10;3.15;;;21.30;53.70;;;;;;20830437;28;20462;-56
2022/09/17 03:15:11;;;;;;;4.82;3.60;;;21.20;54.10;;;;;;20829229;28;20064;-56
2022/09/17 03:25:13;;;;;;;4.07;3.22;;;21.20;54.00;;;;;;20829386;28;20054;-56
2022/09/17 03:35:15;;;;;;;7.43;4.53;;;21.00;53.80;;;;;;20828257;28;20074;-55
2022/09/17 03:45:17;;;;;;;6.32;4.13;;;20.90;53.30;;;;;;20828433;28;20052;-56
2022/09/17 03:55:19;;;;;;;5.03;4.05;;;20.90;53.10;;;;;;20829009;28;20136;-56
2022/09/17 04:05:22;;;;;;;7.87;4.67;;;20.70;53.40;;;;;;20840320;28;20455;-55
2022/09/17 04:15:24;;;;;;;5.80;4.00;;;20.60;53.30;;;;;;20844363;28;20137;-56
2022/09/17 04:25:26;;;;;;;5.07;4.30;;;20.60;52.70;;;;;;20841722;28;20061;-54
2022/09/17 04:35:28;;;;;;;7.18;4.07;;;20.30;53.00;;;;;;20840764;28;20429;-57
2022/09/17 04:45:32;;;;;;;7.25;4.15;;;20.20;52.90;;;;;;20841147;28;20049;-56
2022/09/17 04:55:34;;;;;;;6.00;4.43;;;20.10;52.80;;;;;;20839195;28;20516;-55
2022/09/17 05:05:35;;;;;;;6.55;4.60;;;20.00;53.20;;;;;;20839307;28;20084;-56
2022/09/17 05:15:37;;;;;;;5.70;4.85;;;19.90;53.40;;;;;;20819486;28;20071;-56
2022/09/17 05:25:40;;;;;;;5.78;4.03;;;19.80;53.30;;;;;;20838263;28;20057;-55
2022/09/17 05:35:44;;;;;;;6.78;4.47;;;19.80;53.20;;;;;;20836170;28;20054;-55
2022/09/17 05:45:46;;;;;;;7.22;4.47;;;19.60;53.40;;;;;;20836030;28;20442;-55
2022/09/17 05:55:48;;;;;;;7.40;4.32;;;19.40;53.90;;;;;;20835813;28;20544;-54
2022/09/17 06:05:57;;;;;;;6.25;4.10;;;19.50;53.10;;;;;;20834229;28;20411;-56
2022/09/17 06:16:01;;;;;;;6.43;4.10;;;19.40;52.70;;;;;;20834234;28;20486;-56
2022/09/17 06:26:04;;;;;;;8.10;4.10;;;19.30;52.60;;;;;;20832827;28;20045;-55
2022/09/17 06:36:09;;;;;;;6.53;4.13;;;19.20;52.90;;;;;;20814823;28;20658;-55
2022/09/17 06:46:11;;;;;;;8.18;4.43;;;19.20;52.30;;;;;;20831338;28;20305;-56
2022/09/17 06:56:14;;;;;;;5.85;4.13;;;19.00;52.80;;;;;;20812769;28;20050;-55
2022/09/17 07:06:16;;;;;;;6.68;4.13;;;19.10;52.20;;;;;;20829987;28;20046;-56
2022/09/17 07:16:18;;;;;;;5.68;3.95;;;19.20;51.60;;;;;;20830080;28;20083;-55
2022/09/17 07:26:20;;;;;;;5.97;4.13;;;19.10;51.30;;;;;;20829064;28;20133;-55
2022/09/17 07:36:22;;;;;;;5.63;3.70;;;19.20;50.50;;;;;;20833082;28;20049;-55
2022/09/17 07:46:24;;;;;;;7.05;4.20;;;19.20;50.10;;;;;;20845092;28;20050;-54
2022/09/17 07:56:28;;;;;;;6.30;3.33;;;19.30;49.80;;;;;;20845137;28;20061;-56
2022/09/17 08:06:30;;;;;;;7.13;3.72;;;19.50;49.40;;;;;;20843494;28;20056;-55
2022/09/17 08:16:31;;;;;;;4.20;3.22;;;19.70;49.20;;;;;;20842901;28;20405;-55
2022/09/17 08:26:33;;;;;;;6.50;3.47;;;20.00;48.30;;;;;;20841738;28;20092;-54
2022/09/17 08:36:35;;;;;;;4.65;3.50;;;20.40;47.40;;;;;;20823369;28;20045;-57
2022/09/17 08:47:05;;;;;;;6.53;3.45;;;20.40;47.30;;;;;;20840477;28;20107;-57
2022/09/17 08:57:21;;;;;;;7.40;3.42;;;20.80;46.90;;;;;;20350017;28;20481;-55
2022/09/17 09:07:30;;;;;;;5.55;3.25;;;21.00;46.70;;;;;;20349892;28;20048;-55
2022/09/17 09:17:41;;;;;;;5.50;3.38;;;21.20;45.60;;;;;;20348913;29;20139;-56
2022/09/17 09:28:04;;;;;;;5.53;3.70;;;21.30;45.60;;;;;;20472114;28;20133;-60
2022/09/17 09:38:08;;;;;;;10.47;6.37;;;21.60;45.50;;;;;;20837773;28;20089;-57
2022/09/17 09:48:43;;;;;;;6.07;3.00;;;21.70;45.60;;;;;;20836855;28;20053;-57
2022/09/17 09:58:44;;;;;;;4.43;2.60;;;22.00;44.40;;;;;;20811304;28;20116;-55
2022/09/17 10:08:49;;;;;;;4.35;2.83;;;22.20;43.30;;;;;;20834698;28;20144;-56
2022/09/17 10:19:19;;;;;;;3.88;2.90;;;22.50;42.40;;;;;;20833679;28;20608;-55
2022/09/17 10:29:20;;;;;;;4.13;2.97;;;22.80;41.70;;;;;;20820533;28;20053;-57
2022/09/17 10:39:33;;;;;;;4.25;2.75;;;23.10;40.10;;;;;;20832454;28;20132;-58
2022/09/17 10:49:45;;;;;;;3.90;2.90;;;23.50;38.70;;;;;;20830934;28;20084;-56
2022/09/17 10:59:58;;;;;;;4.37;3.13;;;23.70;37.90;;;;;;20828971;28;20148;-55
2022/09/17 11:09:59;;;;;;;;;;;24.00;40.40;;;;;;20827228;28;20049;-56
2022/09/17 11:20:40;;;;;;;3.53;2.88;;;24.70;37.20;;;;;;20810257;28;20285;-55
2022/09/17 11:30:44;;;;;;;4.03;3.05;;;24.80;36.30;;;;;;20826789;28;20464;-55
2022/09/17 11:40:57;;;;;;;5.18;3.40;;;25.10;36.60;;;;;;20828651;28;20133;-57
2022/09/17 11:51:06;;;;;;;4.88;3.30;;;25.30;34.40;;;;;;20828112;28;20159;-56
2022/09/17 12:01:17;;;;;;;4.30;3.40;;;25.60;34.00;;;;;;20827996;28;20046;-55
2022/09/17 12:11:26;;;;;;;5.63;3.70;;;25.60;30.60;;;;;;20828824;28;20049;-55
2022/09/17 12:21:46;;;;;;;5.05;4.05;;;25.90;32.40;;;;;;20830224;28;20096;-57
2022/09/17 12:31:50;;;;;;;5.07;3.90;;;25.90;29.30;;;;;;20841980;28;20064;-57
2022/09/17 12:42:31;;;;;;;6.38;4.40;;;26.10;29.60;;;;;;20840712;28;20052;-55
2022/09/17 12:52:36;;;;;;;26.25;23.73;;;26.40;30.80;;;;;;20840583;28;20140;-55
2022/09/17 13:02:40;;;;;;;7.25;5.00;;;26.60;31.10;;;;;;20838286;28;20068;-58
2022/09/17 13:13:20;;;;;;;5.15;3.53;;;26.70;30.60;;;;;;20838598;28;20053;-56
2022/09/17 13:23:42;;;;;;;5.07;3.72;;;26.80;30.60;;;;;;20839090;28;20481;-56
2022/09/17 13:33:59;;;;;;;5.22;3.83;;;26.90;30.30;;;;;;20836463;28;20132;-56
2022/09/17 13:44:04;;;;;;;3.67;3.10;;;27.10;30.80;;;;;;20836629;28;20049;-57
2022/09/17 13:54:08;;;;;;;3.70;2.83;;;27.40;31.30;;;;;;20835281;28;20054;-57
2022/09/17 14:04:50;;;;;;;5.07;4.57;;;27.60;31.20;;;;;;20834836;28;20494;-58
2022/09/17 14:14:52;;;;;;;3.97;2.90;;;27.70;31.50;;;;;;20833394;28;20617;-57
2022/09/17 14:24:54;;;;;;;7.20;3.28;;;27.60;31.10;;;;;;20832703;28;20494;-58
2022/09/17 14:34:56;;;;;;;3.42;2.45;;;27.70;31.80;;;;;;20831887;28;20057;-57
2022/09/17 14:45:06;;;;;;;4.50;2.70;;;27.60;31.70;;;;;;20830795;28;20049;-57
2022/09/17 14:55:28;;;;;;;5.70;3.03;;;27.70;31.70;;;;;;20830828;28;20089;-61
2022/09/17 15:05:34;;;;;;;4.57;2.60;;;27.70;31.70;;;;;;20830393;28;20045;-57
2022/09/17 15:15:35;;;;;;;3.50;2.80;;;27.70;31.30;;;;;;20830260;28;20052;-56
2022/09/17 15:25:40;;;;;;;7.38;3.78;;;27.90;31.40;;;;;;20828987;28;20050;-58
2022/09/17 15:36:08;;;;;;;7.68;6.70;;;28.10;31.50;;;;;;20827789;28;20072;-56
2022/09/17 15:46:27;;;;;;;5.70;5.15;;;28.10;31.40;;;;;;20828364;28;20154;-57
2022/09/17 15:56:35;;;;;;;2.72;2.40;;;28.10;31.40;;;;;;20831876;28;20548;-56
2022/09/17 16:06:37;;;;;;;3.08;2.38;;;28.10;31.10;;;;;;20845038;28;20050;-57
2022/09/17 16:16:39;;;;;;;3.03;2.40;;;28.10;31.00;;;;;;20843479;28;20139;-56
2022/09/17 16:26:41;;;;;;;4.22;2.25;;;28.10;30.90;;;;;;20841849;28;20045;-56
2022/09/17 16:36:43;;;;;;;3.55;2.55;;;28.00;31.40;;;;;;20840885;28;20049;-56
2022/09/17 16:46:44;;;;;;;2.83;2.20;;;28.00;31.60;;;;;;20841796;28;20041;-55
2022/09/17 16:56:47;;;;;;;4.10;2.90;;;27.90;31.30;;;;;;20839579;28;20191;-56
2022/09/17 17:06:48;;;;;;;3.08;2.15;;;27.80;32.10;;;;;;20838697;28;20502;-58
2022/09/17 17:16:50;;;;;;;2.80;1.88;;;27.70;31.90;;;;;;20837582;28;20060;-57
2022/09/17 17:26:52;;;;;;;2.60;1.70;;;27.60;31.70;;;;;;20839558;28;20486;-56
2022/09/17 17:36:54;;;;;;;4.25;2.88;;;27.40;31.80;;;;;;20836732;28;20053;-56
2022/09/17 17:46:55;;;;;;;2.22;1.80;;;27.30;32.40;;;;;;20836477;28;20067;-56
2022/09/17 17:56:56;;;;;;;3.13;2.28;;;27.10;32.00;;;;;;20834632;28;20468;-57
2022/09/17 18:06:58;;;;;;;4.75;2.30;;;27.00;32.80;;;;;;20834472;28;20136;-58
2022/09/17 18:16:59;;;;;;;3.30;2.63;;;26.80;33.50;;;;;;20834377;28;20057;-56
2022/09/17 18:27:01;;;;;;;8.50;5.35;;;26.60;34.10;;;;;;20832774;28;20447;-57
2022/09/17 18:37:03;;;;;;;6.50;3.70;;;26.40;34.50;;;;;;20832750;28;20100;-57
2022/09/17 18:47:05;;;;;;;7.32;4.55;;;26.30;35.00;;;;;;20814933;28;20045;-55
2022/09/17 18:57:07;;;;;;;6.63;4.00;;;26.10;35.60;;;;;;20831212;28;20053;-57
2022/09/17 19:07:08;;;;;;;10.50;4.75;;;26.20;35.90;;;;;;20830600;28;20474;-57
2022/09/17 19:17:10;;;;;;;8.43;6.10;;;26.10;36.40;;;;;;20830315;28;20050;-58
2022/09/17 19:27:12;;;;;;;9.20;5.90;;;26.10;36.80;;;;;;20829641;28;20405;-56
2022/09/17 19:37:13;;;;;;;7.07;5.05;;;26.00;35.80;;;;;;20827854;28;20049;-56
2022/09/17 19:47:15;;;;;;;9.77;6.57;;;25.90;36.50;;;;;;20827822;28;20053;-56
2022/09/17 19:57:17;;;;;;;9.57;6.80;;;25.60;38.00;;;;;;20827920;28;20053;-55
2022/09/17 20:07:19;;;;;;;13.35;7.85;;;25.50;37.60;;;;;;20828557;28;20053;-56
2022/09/17 20:17:20;;;;;;;13.30;7.60;;;25.40;38.60;;;;;;20827167;28;20509;-56
2022/09/17 20:27:22;;;;;;;15.10;7.90;;;25.40;39.20;;;;;;20826102;28;20413;-56
2022/09/17 20:37:23;;;;;;;11.73;7.20;;;25.20;39.50;;;;;;20825219;28;20059;-56
2022/09/17 20:47:25;;;;;;;10.55;5.15;;;25.00;40.60;;;;;;20837516;28;20042;-60
2022/09/17 20:57:30;;;;;;;7.63;4.93;;;24.70;40.50;;;;;;20840259;28;20057;-57
2022/09/17 21:07:32;;;;;;;8.02;5.45;;;24.40;40.60;;;;;;20839711;28;20521;-57
2022/09/17 21:17:33;;;;;;;;;;;24.20;40.90;;;;;;20838436;28;20057;-56
2022/09/17 21:27:35;;;;;;;11.70;4.97;;;23.90;41.00;;;;;;20837697;28;19964;-57
2022/09/17 21:37:37;;;;;;;8.00;4.30;;;23.70;41.60;;;;;;20836787;28;20052;-57
2022/09/17 21:47:39;;;;;;;6.57;4.83;;;23.50;42.10;;;;;;20836390;28;20057;-58
2022/09/17 21:57:40;;;;;;;7.10;4.57;;;23.50;41.00;;;;;;20834820;28;20490;-55
2022/09/17 22:07:42;;;;;;;5.85;4.75;;;23.50;40.20;;;;;;20834759;28;20065;-56
2022/09/17 22:17:43;;;;;;;8.50;4.53;;;23.50;38.60;;;;;;20833851;28;20049;-57
2022/09/17 22:27:48;;;;;;;8.13;4.60;;;23.50;38.40;;;;;;20833562;28;20056;-57
2022/09/17 22:37:50;;;;;;;7.85;5.55;;;23.50;38.90;;;;;;20833193;28;20460;-57
2022/09/17 22:47:51;;;;;;;5.27;3.77;;;23.40;37.30;;;;;;20832883;28;20045;-57
2022/09/17 22:57:53;;;;;;;3.88;2.95;;;23.40;36.20;;;;;;20813645;28;20049;-56
2022/09/17 23:07:55;;;;;;;3.75;2.78;;;23.40;35.20;;;;;;20812887;28;20053;-57
2022/09/17 23:17:57;;;;;;;3.83;2.80;;;23.40;35.60;;;;;;20831083;28;20092;-57
2022/09/17 23:27:59;;;;;;;3.90;2.87;;;23.40;36.70;;;;;;20829859;28;20053;-56
2022/09/17 23:38:01;;;;;;;3.50;2.90;;;23.30;35.50;;;;;;20829321;28;20045;-56
2022/09/17 23:48:03;;;;;;;3.80;2.90;;;23.20;35.50;;;;;;20830275;28;20060;-56
2022/09/17 23:58:04;;;;;;;4.18;2.70;;;23.20;35.90;;;;;;20830176;28;20053;-57
